sensor_id;sensor_type;location;lat;lon;timestamp;P1;P2;P0
45990;PMS5003;31721;41.740;-88.000;2022-07-09T00:00:14;16;16;
45990;PMS5003;31721;41.740;-88.000;2022-07-09T00:02:42;20;14;
45990;PMS5003;31721;41.740;-88.000;2022-07-09T00:05:10;20;20;
45990;PMS5003;31721;41.740;-88.000;2022-07-09T00:07:37;16;15;
45990;PMS5003;31721;41.740;-88.000;2022-07-09T00:10:06;19;18;
45990;PMS5003;31721;41.740;-88.000;2022-07-09T00:12:33;18;17;
45990;PMS5003;31721;41.740;-88.000;2022-07-09T00:15:02;18;15;
45990;PMS5003;31721;41.740;-88.000;2022-07-09T00:17:32;18;17;
45990;PMS5003;31721;41.740;-88.000;2022-07-09T00:20:00;17;17;
45990;PMS5003;31721;41.740;-88.000;2022-07-09T00:22:27;17;17;
45990;PMS5003;31721;41.740;-88.000;2022-07-09T00:25:00;19;17;
45990;PMS5003;31721;41.740;-88.000;2022-07-09T00:27:28;15;15;
45990;PMS5003;31721;41.740;-88.000;2022-07-09T00:29:56;18;18;
45990;PMS5003;31721;41.740;-88.000;2022-07-09T00:32:23;16;15;
45990;PMS5003;31721;41.740;-88.000;2022-07-09T00:34:51;14;14;
45990;PMS5003;31721;41.740;-88.000;2022-07-09T00:37:19;14;13;
45990;PMS5003;31721;41.740;-88.000;2022-07-09T00:39:47;13;12;
45990;PMS5003;31721;41.740;-88.000;2022-07-09T00:42:14;14;14;
45990;PMS5003;31721;41.740;-88.000;2022-07-09T00:44:42;14;13;
45990;PMS5003;31721;41.740;-88.000;2022-07-09T00:47:09;14;14;
45990;PMS5003;31721;41.740;-88.000;2022-07-09T00:49:38;16;15;
45990;PMS5003;31721;41.740;-88.000;2022-07-09T00:52:09;17;17;
45990;PMS5003;31721;41.740;-88.000;2022-07-09T00:54:39;16;16;
45990;PMS5003;31721;41.740;-88.000;2022-07-09T00:57:09;15;14;
45990;PMS5003;31721;41.740;-88.000;2022-07-09T00:59:37;17;16;
45990;PMS5003;31721;41.740;-88.000;2022-07-09T01:02:06;21;18;
45990;PMS5003;31721;41.740;-88.000;2022-07-09T01:04:35;17;17;
45990;PMS5003;31721;41.740;-88.000;2022-07-09T01:07:03;16;16;
45990;PMS5003;31721;41.740;-88.000;2022-07-09T01:09:31;18;18;
45990;PMS5003;31721;41.740;-88.000;2022-07-09T01:11:59;16;16;
45990;PMS5003;31721;41.740;-88.000;2022-07-09T01:14:27;20;20;
45990;PMS5003;31721;41.740;-88.000;2022-07-09T01:16:58;14;12;
45990;PMS5003;31721;41.740;-88.000;2022-07-09T01:19:27;17;15;
45990;PMS5003;31721;41.740;-88.000;2022-07-09T01:21:55;18;18;
45990;PMS5003;31721;41.740;-88.000;2022-07-09T01:24:23;12;12;
45990;PMS5003;31721;41.740;-88.000;2022-07-09T01:26:52;15;11;
45990;PMS5003;31721;41.740;-88.000;2022-07-09T01:29:20;20;17;
45990;PMS5003;31721;41.740;-88.000;2022-07-09T01:31:47;12;11;
45990;PMS5003;31721;41.740;-88.000;2022-07-09T01:34:15;11;11;
45990;PMS5003;31721;41.740;-88.000;2022-07-09T01:36:42;10;8;
45990;PMS5003;31721;41.740;-88.000;2022-07-09T01:39:11;11;11;
45990;PMS5003;31721;41.740;-88.000;2022-07-09T01:41:39;9;9;
45990;PMS5003;31721;41.740;-88.000;2022-07-09T01:44:06;10;9;
45990;PMS5003;31721;41.740;-88.000;2022-07-09T01:46:34;10;10;
45990;PMS5003;31721;41.740;-88.000;2022-07-09T01:49:02;11;11;
45990;PMS5003;31721;41.740;-88.000;2022-07-09T01:51:32;11;11;
45990;PMS5003;31721;41.740;-88.000;2022-07-09T01:54:00;10;10;
45990;PMS5003;31721;41.740;-88.000;2022-07-09T01:56:29;12;8;
45990;PMS5003;31721;41.740;-88.000;2022-07-09T01:58:56;10;7;
45990;PMS5003;31721;41.740;-88.000;2022-07-09T02:01:24;10;9;
45990;PMS5003;31721;41.740;-88.000;2022-07-09T02:03:51;10;10;
45990;PMS5003;31721;41.740;-88.000;2022-07-09T02:06:19;12;10;
45990;PMS5003;31721;41.740;-88.000;2022-07-09T02:08:47;11;11;
45990;PMS5003;31721;41.740;-88.000;2022-07-09T02:11:14;8;8;
45990;PMS5003;31721;41.740;-88.000;2022-07-09T02:13:42;10;10;
45990;PMS5003;31721;41.740;-88.000;2022-07-09T02:16:10;13;11;
45990;PMS5003;31721;41.740;-88.000;2022-07-09T02:18:38;12;11;
45990;PMS5003;31721;41.740;-88.000;2022-07-09T02:21:05;14;14;
45990;PMS5003;31721;41.740;-88.000;2022-07-09T02:23:33;14;14;
45990;PMS5003;31721;41.740;-88.000;2022-07-09T02:26:01;11;10;
45990;PMS5003;31721;41.740;-88.000;2022-07-09T02:28:28;18;16;
45990;PMS5003;31721;41.740;-88.000;2022-07-09T02:30:56;20;20;
45990;PMS5003;31721;41.740;-88.000;2022-07-09T02:33:24;18;18;
45990;PMS5003;31721;41.740;-88.000;2022-07-09T02:35:51;12;12;
45990;PMS5003;31721;41.740;-88.000;2022-07-09T02:38:19;19;19;
45990;PMS5003;31721;41.740;-88.000;2022-07-09T02:40:47;27;27;
45990;PMS5003;31721;41.740;-88.000;2022-07-09T02:43:14;34;34;
45990;PMS5003;31721;41.740;-88.000;2022-07-09T02:45:42;18;17;
45990;PMS5003;31721;41.740;-88.000;2022-07-09T02:48:10;30;29;
45990;PMS5003;31721;41.740;-88.000;2022-07-09T02:50:38;77;77;
45990;PMS5003;31721;41.740;-88.000;2022-07-09T02:53:06;79;78;
45990;PMS5003;31721;41.740;-88.000;2022-07-09T02:55:34;23;23;
45990;PMS5003;31721;41.740;-88.000;2022-07-09T02:58:02;39;39;
45990;PMS5003;31721;41.740;-88.000;2022-07-09T03:00:29;34;32;
45990;PMS5003;31721;41.740;-88.000;2022-07-09T03:02:57;21;21;
45990;PMS5003;31721;41.740;-88.000;2022-07-09T03:05:25;38;38;
45990;PMS5003;31721;41.740;-88.000;2022-07-09T03:07:52;7;7;
45990;PMS5003;31721;41.740;-88.000;2022-07-09T03:10:20;7;7;
45990;PMS5003;31721;41.740;-88.000;2022-07-09T03:12:47;8;7;
45990;PMS5003;31721;41.740;-88.000;2022-07-09T03:15:15;9;9;
45990;PMS5003;31721;41.740;-88.000;2022-07-09T03:17:43;9;9;
45990;PMS5003;31721;41.740;-88.000;2022-07-09T03:20:12;9;7;
45990;PMS5003;31721;41.740;-88.000;2022-07-09T03:22:40;7;6;
45990;PMS5003;31721;41.740;-88.000;2022-07-09T03:25:09;44;40;
45990;PMS5003;31721;41.740;-88.000;2022-07-09T03:27:37;14;13;
45990;PMS5003;31721;41.740;-88.000;2022-07-09T03:30:05;18;18;
45990;PMS5003;31721;41.740;-88.000;2022-07-09T03:32:34;72;72;
45990;PMS5003;31721;41.740;-88.000;2022-07-09T03:35:01;53;53;
45990;PMS5003;31721;41.740;-88.000;2022-07-09T03:37:29;16;16;
45990;PMS5003;31721;41.740;-88.000;2022-07-09T03:39:57;16;16;
45990;PMS5003;31721;41.740;-88.000;2022-07-09T03:42:25;20;20;
45990;PMS5003;31721;41.740;-88.000;2022-07-09T03:44:52;20;20;
45990;PMS5003;31721;41.740;-88.000;2022-07-09T03:47:20;14;14;
45990;PMS5003;31721;41.740;-88.000;2022-07-09T03:49:48;13;13;
45990;PMS5003;31721;41.740;-88.000;2022-07-09T03:52:16;17;17;
45990;PMS5003;31721;41.740;-88.000;2022-07-09T03:54:43;13;13;
45990;PMS5003;31721;41.740;-88.000;2022-07-09T03:57:11;17;17;
45990;PMS5003;31721;41.740;-88.000;2022-07-09T03:59:39;12;12;
45990;PMS5003;31721;41.740;-88.000;2022-07-09T04:02:07;10;10;
45990;PMS5003;31721;41.740;-88.000;2022-07-09T04:04:34;12;12;
45990;PMS5003;31721;41.740;-88.000;2022-07-09T04:07:02;14;12;
45990;PMS5003;31721;41.740;-88.000;2022-07-09T04:09:31;12;10;
45990;PMS5003;31721;41.740;-88.000;2022-07-09T04:11:58;13;12;
45990;PMS5003;31721;41.740;-88.000;2022-07-09T04:14:26;9;9;
45990;PMS5003;31721;41.740;-88.000;2022-07-09T04:16:54;9;9;
45990;PMS5003;31721;41.740;-88.000;2022-07-09T04:19:21;7;7;
45990;PMS5003;31721;41.740;-88.000;2022-07-09T04:21:49;6;6;
45990;PMS5003;31721;41.740;-88.000;2022-07-09T04:24:17;10;7;
45990;PMS5003;31721;41.740;-88.000;2022-07-09T04:26:45;9;9;
45990;PMS5003;31721;41.740;-88.000;2022-07-09T04:29:12;8;8;
45990;PMS5003;31721;41.740;-88.000;2022-07-09T04:31:40;11;8;
45990;PMS5003;31721;41.740;-88.000;2022-07-09T04:34:07;8;8;
45990;PMS5003;31721;41.740;-88.000;2022-07-09T04:36:35;8;8;
45990;PMS5003;31721;41.740;-88.000;2022-07-09T04:39:03;11;9;
45990;PMS5003;31721;41.740;-88.000;2022-07-09T04:41:31;10;9;
45990;PMS5003;31721;41.740;-88.000;2022-07-09T04:43:59;12;11;
45990;PMS5003;31721;41.740;-88.000;2022-07-09T04:46:27;10;10;
45990;PMS5003;31721;41.740;-88.000;2022-07-09T04:48:55;8;8;
45990;PMS5003;31721;41.740;-88.000;2022-07-09T04:51:22;6;6;
45990;PMS5003;31721;41.740;-88.000;2022-07-09T04:53:50;9;9;
45990;PMS5003;31721;41.740;-88.000;2022-07-09T04:56:18;8;8;
45990;PMS5003;31721;41.740;-88.000;2022-07-09T04:58:45;10;10;
45990;PMS5003;31721;41.740;-88.000;2022-07-09T05:01:13;12;12;
45990;PMS5003;31721;41.740;-88.000;2022-07-09T05:03:41;14;12;
45990;PMS5003;31721;41.740;-88.000;2022-07-09T05:06:08;9;9;
45990;PMS5003;31721;41.740;-88.000;2022-07-09T05:08:36;14;13;
45990;PMS5003;31721;41.740;-88.000;2022-07-09T05:11:04;14;12;
45990;PMS5003;31721;41.740;-88.000;2022-07-09T05:13:32;18;18;
45990;PMS5003;31721;41.740;-88.000;2022-07-09T05:15:59;11;11;
45990;PMS5003;31721;41.740;-88.000;2022-07-09T05:18:27;16;16;
45990;PMS5003;31721;41.740;-88.000;2022-07-09T05:20:54;54;54;
45990;PMS5003;31721;41.740;-88.000;2022-07-09T05:23:22;14;13;
45990;PMS5003;31721;41.740;-88.000;2022-07-09T05:25:49;12;9;
45990;PMS5003;31721;41.740;-88.000;2022-07-09T05:28:17;9;7;
45990;PMS5003;31721;41.740;-88.000;2022-07-09T05:30:45;8;7;
45990;PMS5003;31721;41.740;-88.000;2022-07-09T05:33:12;8;6;
45990;PMS5003;31721;41.740;-88.000;2022-07-09T05:35:40;9;7;
45990;PMS5003;31721;41.740;-88.000;2022-07-09T05:38:08;12;10;
45990;PMS5003;31721;41.740;-88.000;2022-07-09T05:40:36;11;11;
45990;PMS5003;31721;41.740;-88.000;2022-07-09T05:43:03;16;16;
45990;PMS5003;31721;41.740;-88.000;2022-07-09T05:45:31;17;17;
45990;PMS5003;31721;41.740;-88.000;2022-07-09T05:47:58;25;25;
45990;PMS5003;31721;41.740;-88.000;2022-07-09T05:50:26;10;9;
45990;PMS5003;31721;41.740;-88.000;2022-07-09T05:52:54;12;12;
45990;PMS5003;31721;41.740;-88.000;2022-07-09T05:55:22;12;12;
45990;PMS5003;31721;41.740;-88.000;2022-07-09T05:57:49;8;7;
45990;PMS5003;31721;41.740;-88.000;2022-07-09T06:00:17;10;10;
45990;PMS5003;31721;41.740;-88.000;2022-07-09T06:02:45;9;8;
45990;PMS5003;31721;41.740;-88.000;2022-07-09T06:05:12;7;7;
45990;PMS5003;31721;41.740;-88.000;2022-07-09T06:07:40;11;8;
45990;PMS5003;31721;41.740;-88.000;2022-07-09T06:10:08;11;9;
45990;PMS5003;31721;41.740;-88.000;2022-07-09T06:12:36;11;11;
45990;PMS5003;31721;41.740;-88.000;2022-07-09T06:15:04;11;11;
45990;PMS5003;31721;41.740;-88.000;2022-07-09T06:17:32;9;9;
45990;PMS5003;31721;41.740;-88.000;2022-07-09T06:20:00;13;11;
45990;PMS5003;31721;41.740;-88.000;2022-07-09T06:22:27;12;11;
45990;PMS5003;31721;41.740;-88.000;2022-07-09T06:24:55;13;12;
45990;PMS5003;31721;41.740;-88.000;2022-07-09T06:27:23;10;10;
45990;PMS5003;31721;41.740;-88.000;2022-07-09T06:29:51;10;10;
45990;PMS5003;31721;41.740;-88.000;2022-07-09T06:32:18;9;9;
45990;PMS5003;31721;41.740;-88.000;2022-07-09T06:34:46;12;12;
45990;PMS5003;31721;41.740;-88.000;2022-07-09T06:37:14;13;11;
45990;PMS5003;31721;41.740;-88.000;2022-07-09T06:39:41;11;10;
45990;PMS5003;31721;41.740;-88.000;2022-07-09T06:42:10;13;13;
45990;PMS5003;31721;41.740;-88.000;2022-07-09T06:44:38;11;9;
45990;PMS5003;31721;41.740;-88.000;2022-07-09T06:47:06;11;11;
45990;PMS5003;31721;41.740;-88.000;2022-07-09T06:49:34;8;8;
45990;PMS5003;31721;41.740;-88.000;2022-07-09T06:52:02;9;9;
45990;PMS5003;31721;41.740;-88.000;2022-07-09T06:54:31;11;10;
45990;PMS5003;31721;41.740;-88.000;2022-07-09T06:56:58;13;11;
45990;PMS5003;31721;41.740;-88.000;2022-07-09T06:59:26;11;10;
45990;PMS5003;31721;41.740;-88.000;2022-07-09T07:01:54;7;7;
45990;PMS5003;31721;41.740;-88.000;2022-07-09T07:04:21;10;10;
45990;PMS5003;31721;41.740;-88.000;2022-07-09T07:06:49;16;16;
45990;PMS5003;31721;41.740;-88.000;2022-07-09T07:09:17;11;8;
45990;PMS5003;31721;41.740;-88.000;2022-07-09T07:11:50;25;25;
45990;PMS5003;31721;41.740;-88.000;2022-07-09T07:14:17;29;27;
45990;PMS5003;31721;41.740;-88.000;2022-07-09T07:16:45;27;25;
45990;PMS5003;31721;41.740;-88.000;2022-07-09T07:19:12;41;39;
45990;PMS5003;31721;41.740;-88.000;2022-07-09T07:21:40;27;27;
45990;PMS5003;31721;41.740;-88.000;2022-07-09T07:24:08;30;30;
45990;PMS5003;31721;41.740;-88.000;2022-07-09T07:26:36;39;39;
45990;PMS5003;31721;41.740;-88.000;2022-07-09T07:29:04;21;18;
45990;PMS5003;31721;41.740;-88.000;2022-07-09T07:31:31;52;52;
45990;PMS5003;31721;41.740;-88.000;2022-07-09T07:33:59;22;22;
45990;PMS5003;31721;41.740;-88.000;2022-07-09T07:36:27;21;21;
45990;PMS5003;31721;41.740;-88.000;2022-07-09T07:38:55;23;23;
45990;PMS5003;31721;41.740;-88.000;2022-07-09T07:41:22;10;10;
45990;PMS5003;31721;41.740;-88.000;2022-07-09T07:43:50;25;24;
45990;PMS5003;31721;41.740;-88.000;2022-07-09T07:46:18;68;66;
45990;PMS5003;31721;41.740;-88.000;2022-07-09T07:48:45;36;35;
45990;PMS5003;31721;41.740;-88.000;2022-07-09T07:51:13;26;25;
45990;PMS5003;31721;41.740;-88.000;2022-07-09T07:53:40;51;49;
45990;PMS5003;31721;41.740;-88.000;2022-07-09T07:56:08;21;21;
45990;PMS5003;31721;41.740;-88.000;2022-07-09T07:58:35;75;74;
45990;PMS5003;31721;41.740;-88.000;2022-07-09T08:01:03;14;13;
45990;PMS5003;31721;41.740;-88.000;2022-07-09T08:03:31;20;18;
45990;PMS5003;31721;41.740;-88.000;2022-07-09T08:05:59;24;24;
45990;PMS5003;31721;41.740;-88.000;2022-07-09T08:08:27;52;52;
45990;PMS5003;31721;41.740;-88.000;2022-07-09T08:10:54;76;76;
45990;PMS5003;31721;41.740;-88.000;2022-07-09T08:13:22;47;46;
45990;PMS5003;31721;41.740;-88.000;2022-07-09T08:15:49;40;40;
45990;PMS5003;31721;41.740;-88.000;2022-07-09T08:18:17;28;27;
45990;PMS5003;31721;41.740;-88.000;2022-07-09T08:20:45;53;52;
45990;PMS5003;31721;41.740;-88.000;2022-07-09T08:23:13;54;54;
45990;PMS5003;31721;41.740;-88.000;2022-07-09T08:25:40;20;20;
45990;PMS5003;31721;41.740;-88.000;2022-07-09T08:28:08;43;42;
45990;PMS5003;31721;41.740;-88.000;2022-07-09T08:30:35;15;15;
45990;PMS5003;31721;41.740;-88.000;2022-07-09T08:33:03;21;19;
45990;PMS5003;31721;41.740;-88.000;2022-07-09T08:35:31;16;16;
45990;PMS5003;31721;41.740;-88.000;2022-07-09T08:37:58;33;33;
45990;PMS5003;31721;41.740;-88.000;2022-07-09T08:40:26;34;33;
45990;PMS5003;31721;41.740;-88.000;2022-07-09T08:42:54;37;36;
45990;PMS5003;31721;41.740;-88.000;2022-07-09T08:45:23;20;20;
45990;PMS5003;31721;41.740;-88.000;2022-07-09T08:47:53;29;28;
45990;PMS5003;31721;41.740;-88.000;2022-07-09T08:50:21;30;30;
45990;PMS5003;31721;41.740;-88.000;2022-07-09T08:52:49;10;10;
45990;PMS5003;31721;41.740;-88.000;2022-07-09T08:55:21;14;10;
45990;PMS5003;31721;41.740;-88.000;2022-07-09T08:57:49;9;9;
45990;PMS5003;31721;41.740;-88.000;2022-07-09T09:00:18;13;11;
45990;PMS5003;31721;41.740;-88.000;2022-07-09T09:02:46;53;52;
45990;PMS5003;31721;41.740;-88.000;2022-07-09T09:05:14;48;47;
45990;PMS5003;31721;41.740;-88.000;2022-07-09T09:07:42;61;61;
45990;PMS5003;31721;41.740;-88.000;2022-07-09T09:10:19;28;27;
45990;PMS5003;31721;41.740;-88.000;2022-07-09T09:12:48;24;23;
45990;PMS5003;31721;41.740;-88.000;2022-07-09T09:15:17;39;38;
45990;PMS5003;31721;41.740;-88.000;2022-07-09T09:17:45;37;36;
45990;PMS5003;31721;41.740;-88.000;2022-07-09T09:20:13;26;25;
45990;PMS5003;31721;41.740;-88.000;2022-07-09T09:22:45;22;22;
45990;PMS5003;31721;41.740;-88.000;2022-07-09T09:25:15;27;25;
45990;PMS5003;31721;41.740;-88.000;2022-07-09T09:27:51;29;28;
45990;PMS5003;31721;41.740;-88.000;2022-07-09T09:30:19;25;24;
45990;PMS5003;31721;41.740;-88.000;2022-07-09T09:32:55;26;26;
45990;PMS5003;31721;41.740;-88.000;2022-07-09T09:35:24;18;18;
45990;PMS5003;31721;41.740;-88.000;2022-07-09T09:37:54;23;23;
45990;PMS5003;31721;41.740;-88.000;2022-07-09T09:40:23;24;24;
45990;PMS5003;31721;41.740;-88.000;2022-07-09T09:42:56;36;36;
45990;PMS5003;31721;41.740;-88.000;2022-07-09T09:45:28;25;25;
45990;PMS5003;31721;41.740;-88.000;2022-07-09T09:47:56;28;26;
45990;PMS5003;31721;41.740;-88.000;2022-07-09T09:50:26;26;24;
45990;PMS5003;31721;41.740;-88.000;2022-07-09T09:52:54;36;35;
45990;PMS5003;31721;41.740;-88.000;2022-07-09T09:55:22;40;40;
45990;PMS5003;31721;41.740;-88.000;2022-07-09T09:57:50;29;27;
45990;PMS5003;31721;41.740;-88.000;2022-07-09T10:00:19;29;28;
45990;PMS5003;31721;41.740;-88.000;2022-07-09T10:02:47;30;30;
45990;PMS5003;31721;41.740;-88.000;2022-07-09T10:05:15;34;34;
45990;PMS5003;31721;41.740;-88.000;2022-07-09T10:07:43;23;23;
45990;PMS5003;31721;41.740;-88.000;2022-07-09T10:10:16;25;25;
45990;PMS5003;31721;41.740;-88.000;2022-07-09T10:12:45;31;27;
45990;PMS5003;31721;41.740;-88.000;2022-07-09T10:15:22;26;25;
45990;PMS5003;31721;41.740;-88.000;2022-07-09T10:17:51;22;21;
45990;PMS5003;31721;41.740;-88.000;2022-07-09T10:20:28;27;23;
45990;PMS5003;31721;41.740;-88.000;2022-07-09T10:22:57;26;26;
45990;PMS5003;31721;41.740;-88.000;2022-07-09T10:25:27;22;22;
45990;PMS5003;31721;41.740;-88.000;2022-07-09T10:27:57;23;21;
45990;PMS5003;31721;41.740;-88.000;2022-07-09T10:30:25;27;24;
45990;PMS5003;31721;41.740;-88.000;2022-07-09T10:33:01;20;20;
45990;PMS5003;31721;41.740;-88.000;2022-07-09T10:35:30;32;32;
45990;PMS5003;31721;41.740;-88.000;2022-07-09T10:38:05;24;24;
45990;PMS5003;31721;41.740;-88.000;2022-07-09T10:40:37;33;33;
45990;PMS5003;31721;41.740;-88.000;2022-07-09T10:43:07;41;41;
45990;PMS5003;31721;41.740;-88.000;2022-07-09T10:45:36;21;20;
45990;PMS5003;31721;41.740;-88.000;2022-07-09T10:48:06;22;21;
45990;PMS5003;31721;41.740;-88.000;2022-07-09T10:50:36;21;20;
45990;PMS5003;31721;41.740;-88.000;2022-07-09T10:53:05;34;34;
45990;PMS5003;31721;41.740;-88.000;2022-07-09T10:55:33;22;22;
45990;PMS5003;31721;41.740;-88.000;2022-07-09T10:58:01;28;28;
45990;PMS5003;31721;41.740;-88.000;2022-07-09T11:00:30;25;23;
45990;PMS5003;31721;41.740;-88.000;2022-07-09T11:02:57;25;23;
45990;PMS5003;31721;41.740;-88.000;2022-07-09T11:05:26;22;21;
45990;PMS5003;31721;41.740;-88.000;2022-07-09T11:07:55;25;25;
45990;PMS5003;31721;41.740;-88.000;2022-07-09T11:10:24;27;25;
45990;PMS5003;31721;41.740;-88.000;2022-07-09T11:12:53;20;20;
45990;PMS5003;31721;41.740;-88.000;2022-07-09T11:15:23;27;27;
45990;PMS5003;31721;41.740;-88.000;2022-07-09T11:17:55;33;33;
45990;PMS5003;31721;41.740;-88.000;2022-07-09T11:20:24;25;25;
45990;PMS5003;31721;41.740;-88.000;2022-07-09T11:22:52;17;17;
45990;PMS5003;31721;41.740;-88.000;2022-07-09T11:25:19;33;32;
45990;PMS5003;31721;41.740;-88.000;2022-07-09T11:27:47;20;19;
45990;PMS5003;31721;41.740;-88.000;2022-07-09T11:30:15;19;19;
45990;PMS5003;31721;41.740;-88.000;2022-07-09T11:32:43;7;5;
45990;PMS5003;31721;41.740;-88.000;2022-07-09T11:35:11;7;7;
45990;PMS5003;31721;41.740;-88.000;2022-07-09T11:37:49;4;4;
45990;PMS5003;31721;41.740;-88.000;2022-07-09T11:40:17;5;5;
45990;PMS5003;31721;41.740;-88.000;2022-07-09T11:42:45;6;6;
45990;PMS5003;31721;41.740;-88.000;2022-07-09T11:45:13;5;5;
45990;PMS5003;31721;41.740;-88.000;2022-07-09T11:47:41;5;5;
45990;PMS5003;31721;41.740;-88.000;2022-07-09T11:50:09;4;3;
45990;PMS5003;31721;41.740;-88.000;2022-07-09T11:52:42;5;3;
45990;PMS5003;31721;41.740;-88.000;2022-07-09T11:55:13;4;3;
45990;PMS5003;31721;41.740;-88.000;2022-07-09T11:57:50;4;4;
45990;PMS5003;31721;41.740;-88.000;2022-07-09T12:00:20;4;4;
45990;PMS5003;31721;41.740;-88.000;2022-07-09T12:02:49;5;5;
45990;PMS5003;31721;41.740;-88.000;2022-07-09T12:05:24;2;2;
45990;PMS5003;31721;41.740;-88.000;2022-07-09T12:07:53;5;4;
45990;PMS5003;31721;41.740;-88.000;2022-07-09T12:10:25;3;3;
45990;PMS5003;31721;41.740;-88.000;2022-07-09T12:12:54;3;3;
45990;PMS5003;31721;41.740;-88.000;2022-07-09T12:15:23;6;5;
45990;PMS5003;31721;41.740;-88.000;2022-07-09T12:17:51;5;5;
45990;PMS5003;31721;41.740;-88.000;2022-07-09T12:20:20;7;4;
45990;PMS5003;31721;41.740;-88.000;2022-07-09T12:22:48;3;3;
45990;PMS5003;31721;41.740;-88.000;2022-07-09T12:25:16;4;4;
45990;PMS5003;31721;41.740;-88.000;2022-07-09T12:27:44;4;4;
45990;PMS5003;31721;41.740;-88.000;2022-07-09T12:30:12;4;4;
45990;PMS5003;31721;41.740;-88.000;2022-07-09T12:32:40;4;4;
45990;PMS5003;31721;41.740;-88.000;2022-07-09T12:35:09;35;35;
45990;PMS5003;31721;41.740;-88.000;2022-07-09T12:37:37;10;8;
45990;PMS5003;31721;41.740;-88.000;2022-07-09T12:40:06;8;8;
45990;PMS5003;31721;41.740;-88.000;2022-07-09T12:42:36;7;7;
45990;PMS5003;31721;41.740;-88.000;2022-07-09T12:45:05;3;2;
45990;PMS5003;31721;41.740;-88.000;2022-07-09T12:47:33;6;6;
45990;PMS5003;31721;41.740;-88.000;2022-07-09T12:50:01;3;3;
45990;PMS5003;31721;41.740;-88.000;2022-07-09T12:52:30;2;2;
45990;PMS5003;31721;41.740;-88.000;2022-07-09T12:54:58;3;3;
45990;PMS5003;31721;41.740;-88.000;2022-07-09T12:57:26;4;4;
45990;PMS5003;31721;41.740;-88.000;2022-07-09T12:59:53;5;4;
45990;PMS5003;31721;41.740;-88.000;2022-07-09T13:02:21;2;2;
45990;PMS5003;31721;41.740;-88.000;2022-07-09T13:04:49;6;4;
45990;PMS5003;31721;41.740;-88.000;2022-07-09T13:07:17;5;4;
45990;PMS5003;31721;41.740;-88.000;2022-07-09T13:09:44;6;4;
45990;PMS5003;31721;41.740;-88.000;2022-07-09T13:12:12;4;4;
45990;PMS5003;31721;41.740;-88.000;2022-07-09T13:14:40;3;3;
45990;PMS5003;31721;41.740;-88.000;2022-07-09T13:17:07;6;4;
45990;PMS5003;31721;41.740;-88.000;2022-07-09T13:19:35;3;3;
45990;PMS5003;31721;41.740;-88.000;2022-07-09T13:22:03;5;5;
45990;PMS5003;31721;41.740;-88.000;2022-07-09T13:24:30;3;3;
45990;PMS5003;31721;41.740;-88.000;2022-07-09T13:26:58;5;3;
45990;PMS5003;31721;41.740;-88.000;2022-07-09T13:29:26;3;1;
45990;PMS5003;31721;41.740;-88.000;2022-07-09T13:31:53;3;3;
45990;PMS5003;31721;41.740;-88.000;2022-07-09T13:34:21;3;3;
45990;PMS5003;31721;41.740;-88.000;2022-07-09T13:36:49;2;2;
45990;PMS5003;31721;41.740;-88.000;2022-07-09T13:39:16;5;4;
45990;PMS5003;31721;41.740;-88.000;2022-07-09T13:41:44;3;3;
45990;PMS5003;31721;41.740;-88.000;2022-07-09T13:44:12;3;3;
45990;PMS5003;31721;41.740;-88.000;2022-07-09T13:46:39;3;3;
45990;PMS5003;31721;41.740;-88.000;2022-07-09T13:49:07;3;3;
45990;PMS5003;31721;41.740;-88.000;2022-07-09T13:51:35;2;2;
45990;PMS5003;31721;41.740;-88.000;2022-07-09T13:54:02;2;2;
45990;PMS5003;31721;41.740;-88.000;2022-07-09T13:56:30;2;2;
45990;PMS5003;31721;41.740;-88.000;2022-07-09T13:58:58;3;3;
45990;PMS5003;31721;41.740;-88.000;2022-07-09T14:01:25;4;4;
45990;PMS5003;31721;41.740;-88.000;2022-07-09T14:03:53;5;5;
45990;PMS5003;31721;41.740;-88.000;2022-07-09T14:06:21;6;4;
45990;PMS5003;31721;41.740;-88.000;2022-07-09T14:08:48;4;4;
45990;PMS5003;31721;41.740;-88.000;2022-07-09T14:11:16;4;4;
45990;PMS5003;31721;41.740;-88.000;2022-07-09T14:13:44;3;3;
45990;PMS5003;31721;41.740;-88.000;2022-07-09T14:16:11;4;3;
45990;PMS5003;31721;41.740;-88.000;2022-07-09T14:18:39;2;2;
45990;PMS5003;31721;41.740;-88.000;2022-07-09T14:21:07;3;3;
45990;PMS5003;31721;41.740;-88.000;2022-07-09T14:23:35;2;2;
45990;PMS5003;31721;41.740;-88.000;2022-07-09T14:26:03;4;4;
45990;PMS5003;31721;41.740;-88.000;2022-07-09T14:28:31;3;3;
45990;PMS5003;31721;41.740;-88.000;2022-07-09T14:30:58;3;2;
45990;PMS5003;31721;41.740;-88.000;2022-07-09T14:33:26;5;4;
45990;PMS5003;31721;41.740;-88.000;2022-07-09T14:35:53;7;6;
45990;PMS5003;31721;41.740;-88.000;2022-07-09T14:38:22;4;4;
45990;PMS5003;31721;41.740;-88.000;2022-07-09T14:40:49;3;3;
45990;PMS5003;31721;41.740;-88.000;2022-07-09T14:43:17;3;3;
45990;PMS5003;31721;41.740;-88.000;2022-07-09T14:45:45;7;7;
45990;PMS5003;31721;41.740;-88.000;2022-07-09T14:48:13;2;2;
45990;PMS5003;31721;41.740;-88.000;2022-07-09T14:50:40;5;5;
45990;PMS5003;31721;41.740;-88.000;2022-07-09T14:53:08;3;3;
45990;PMS5003;31721;41.740;-88.000;2022-07-09T14:55:36;3;3;
45990;PMS5003;31721;41.740;-88.000;2022-07-09T14:58:03;3;3;
45990;PMS5003;31721;41.740;-88.000;2022-07-09T15:00:31;4;4;
45990;PMS5003;31721;41.740;-88.000;2022-07-09T15:02:58;4;4;
45990;PMS5003;31721;41.740;-88.000;2022-07-09T15:05:26;7;4;
45990;PMS5003;31721;41.740;-88.000;2022-07-09T15:07:54;4;4;
45990;PMS5003;31721;41.740;-88.000;2022-07-09T15:10:21;5;5;
45990;PMS5003;31721;41.740;-88.000;2022-07-09T15:12:49;4;4;
45990;PMS5003;31721;41.740;-88.000;2022-07-09T15:15:17;5;5;
45990;PMS5003;31721;41.740;-88.000;2022-07-09T15:17:44;6;4;
45990;PMS5003;31721;41.740;-88.000;2022-07-09T15:20:12;3;3;
45990;PMS5003;31721;41.740;-88.000;2022-07-09T15:22:40;3;3;
45990;PMS5003;31721;41.740;-88.000;2022-07-09T15:25:07;5;4;
45990;PMS5003;31721;41.740;-88.000;2022-07-09T15:27:35;3;3;
45990;PMS5003;31721;41.740;-88.000;2022-07-09T15:30:03;3;3;
45990;PMS5003;31721;41.740;-88.000;2022-07-09T15:32:31;4;4;
45990;PMS5003;31721;41.740;-88.000;2022-07-09T15:34:59;3;3;
45990;PMS5003;31721;41.740;-88.000;2022-07-09T15:37:26;4;4;
45990;PMS5003;31721;41.740;-88.000;2022-07-09T15:39:54;5;5;
45990;PMS5003;31721;41.740;-88.000;2022-07-09T15:42:21;3;3;
45990;PMS5003;31721;41.740;-88.000;2022-07-09T15:44:49;3;3;
45990;PMS5003;31721;41.740;-88.000;2022-07-09T15:47:16;5;3;
45990;PMS5003;31721;41.740;-88.000;2022-07-09T15:49:44;4;4;
45990;PMS5003;31721;41.740;-88.000;2022-07-09T15:52:12;2;2;
45990;PMS5003;31721;41.740;-88.000;2022-07-09T15:54:39;3;3;
45990;PMS5003;31721;41.740;-88.000;2022-07-09T15:57:07;4;4;
45990;PMS5003;31721;41.740;-88.000;2022-07-09T15:59:35;5;5;
45990;PMS5003;31721;41.740;-88.000;2022-07-09T16:02:02;4;4;
45990;PMS5003;31721;41.740;-88.000;2022-07-09T16:04:30;4;4;